Time;durP1;ratioP1;P1;durP2;ratioP2;P2;SDS_P1;SDS_P2;PMS_P1;PMS_P2;Temp;Humidity;BMP_temperature;BMP_pressure;BME280_temperature;BME280_humidity;BME280_pressure;Samples;Min_cycle;Max_cycle;Signal;HPM_P1;HPM_P2
2023/01/24 00:03:11;;;;;;;11.00;4.40;;;;;;;-0.61;73.92;102294.68;109621;1253;75433;-75
2023/01/24 00:05:59;;;;;;;10.40;4.20;;;;;;;-0.63;73.76;102296.25;109650;1252;66307;-72
2023/01/24 00:08:47;;;;;;;9.20;3.80;;;;;;;-0.64;73.82;102296.41;109561;1253;72778;-74
2023/01/24 00:11:35;;;;;;;11.00;4.80;;;;;;;-0.65;73.89;102296.23;109605;1253;57881;-75
2023/01/24 00:14:23;;;;;;;13.50;4.30;;;;;;;-0.66;74.16;102297.11;108876;1253;1002463;-75
2023/01/24 00:17:11;;;;;;;9.40;4.00;;;;;;;-0.67;74.08;102293.61;109657;1253;73212;-73
2023/01/24 00:19:59;;;;;;;8.70;3.50;;;;;;;-0.69;74.01;102290.65;109656;1253;66638;-73
2023/01/24 00:22:47;;;;;;;10.00;4.40;;;;;;;-0.72;73.99;102289.41;109572;1254;71511;-72
2023/01/24 00:25:35;;;;;;;10.30;4.10;;;;;;;-0.71;74.05;102293.95;109596;1254;57325;-73
2023/01/24 00:28:23;;;;;;;11.60;3.90;;;;;;;-0.70;73.95;102297.61;109584;1252;60450;-74
2023/01/24 00:31:13;;;;;;;11.10;3.70;;;;;;;-0.72;73.53;102292.55;109568;1255;72625;-74
2023/01/24 00:34:01;;;;;;;9.20;4.20;;;;;;;-0.70;73.50;102291.69;109557;1253;68165;-73
2023/01/24 00:36:49;;;;;;;11.20;4.40;;;;;;;-0.74;73.38;102280.17;108797;1253;1002339;-73
2023/01/24 00:39:37;;;;;;;12.80;4.50;;;;;;;-0.70;73.81;102280.70;109559;1254;57352;-74
2023/01/24 00:42:25;;;;;;;8.40;3.50;;;;;;;-0.67;73.96;102284.20;109551;1257;61768;-72
2023/01/24 00:45:13;;;;;;;10.70;4.70;;;;;;;-0.67;73.81;102285.95;109532;1254;71462;-73
2023/01/24 00:48:01;;;;;;;9.80;4.40;;;;;;;-0.67;74.17;102285.77;109529;1256;68558;-74
2023/01/24 00:50:49;;;;;;;8.40;3.40;;;;;;;-0.67;73.99;102285.42;109536;1253;73367;-72
2023/01/24 00:53:37;;;;;;;8.70;3.50;;;;;;;-0.68;74.33;102281.23;109562;1253;58131;-73
2023/01/24 00:56:26;;;;;;;8.90;4.10;;;;;;;-0.71;74.17;102280.87;109510;1254;60451;-73
2023/01/24 00:59:14;;;;;;;10.70;4.50;;;;;;;-0.74;74.24;102281.56;109430;1252;74222;-72
2023/01/24 01:02:03;;;;;;;10.00;4.10;;;;;;;-0.76;73.92;102285.73;109520;1257;69107;-73
2023/01/24 01:04:51;;;;;;;9.00;4.20;;;;;;;-0.78;73.96;102282.06;109488;1254;70112;-73
2023/01/24 01:07:39;;;;;;;8.70;3.70;;;;;;;-0.79;74.28;102285.73;109512;1253;57338;-73
2023/01/24 01:10:27;;;;;;;8.00;3.20;;;;;;;-0.76;73.98;102289.04;109571;1254;59286;-73
2023/01/24 01:13:15;;;;;;;8.30;3.20;;;;;;;-0.76;73.55;102290.77;109555;1252;73241;-73
2023/01/24 01:16:12;;;;;;;7.90;2.70;;;;;;;-0.81;73.09;102286.91;109556;1253;68035;-73
2023/01/24 01:19:00;;;;;;;7.80;2.80;;;;;;;-0.87;73.30;102286.55;109403;1253;72356;-72
2023/01/24 01:21:49;;;;;;;6.80;2.50;;;;;;;-0.88;73.71;102280.44;109540;1254;57356;-73
2023/01/24 01:24:37;;;;;;;9.80;4.10;;;;;;;-0.89;73.76;102270.84;109551;1253;61507;-71
2023/01/24 01:27:25;;;;;;;9.30;3.30;;;;;;;-0.89;74.07;102269.98;108788;1253;1002977;-73
2023/01/24 01:30:14;;;;;;;8.40;3.10;;;;;;;-0.89;74.30;102271.20;109569;1254;69067;-72
2023/01/24 01:33:02;;;;;;;8.30;3.30;;;;;;;-0.90;74.13;102273.45;108785;1256;1002223;-73
2023/01/24 01:35:51;;;;;;;8.40;3.40;;;;;;;-0.93;74.00;102275.54;108729;1253;1002494;-73
2023/01/24 01:38:38;;;;;;;8.90;3.70;;;;;;;-0.94;74.00;102277.61;109464;1254;59096;-74
2023/01/24 01:41:26;;;;;;;9.60;4.40;;;;;;;-0.94;74.06;102281.80;109533;1252;72781;-73
2023/01/24 01:44:38;;;;;;;9.20;4.30;;;;;;;-0.90;74.35;102281.13;109500;1253;67022;-75
2023/01/24 01:47:36;;;;;;;8.50;3.70;;;;;;;-0.91;73.64;102278.33;109365;1254;73755;-73
2023/01/24 01:50:33;;;;;;;7.90;3.30;;;;;;;-0.96;73.47;102281.27;109557;1253;57326;-72
2023/01/24 01:53:25;;;;;;;8.50;3.60;;;;;;;-0.98;73.59;102281.45;109573;1253;59139;-73
2023/01/24 01:56:46;;;;;;;8.90;3.60;;;;;;;-0.96;73.90;102281.09;109359;1254;74358;-73
2023/01/24 01:59:46;;;;;;;7.60;2.80;;;;;;;-0.95;74.04;102286.50;109479;1253;68754;-74
2023/01/24 02:02:35;;;;;;;8.20;3.40;;;;;;;-0.95;74.21;102276.92;109387;1253;73677;-74
2023/01/24 02:05:25;;;;;;;8.90;3.20;;;;;;;-0.93;74.10;102274.14;109520;1253;57277;-72
2023/01/24 02:08:19;;;;;;;8.50;3.80;;;;;;;-0.91;74.11;102279.38;108735;1254;1002084;-72
2023/01/24 02:17:27;;;;;;;9.50;4.60;;;;;;;-0.94;74.40;102290.86;109529;1253;71818;-72
2023/01/24 02:20:35;;;;;;;9.00;4.50;;;;;;;-0.95;74.22;102284.92;109545;1253;58705;-73
2023/01/24 02:24:04;;;;;;;9.80;4.00;;;;;;;-0.97;74.22;102288.59;109563;1253;61106;-73
2023/01/24 02:26:52;;;;;;;9.50;3.60;;;;;;;-0.98;74.39;102285.62;109416;1254;73196;-72
2023/01/24 02:29:41;;;;;;;8.50;3.60;;;;;;;-0.97;74.39;102283.89;109548;1253;67819;-73
2023/01/24 02:32:29;;;;;;;7.90;3.50;;;;;;;-0.94;74.54;102284.42;109535;1253;72708;-73
2023/01/24 02:35:29;;;;;;;12.40;4.70;;;;;;;-0.92;74.33;102285.83;109526;1253;57345;-73
2023/01/24 02:38:28;;;;;;;12.60;4.70;;;;;;;-0.93;74.18;102284.77;109375;1252;58729;-72
2023/01/24 02:41:22;;;;;;;29.20;8.80;;;;;;;-0.92;74.12;102276.59;108722;1254;1002250;-72
2023/01/24 02:44:19;;;;;;;35.40;10.90;;;;;;;-0.92;74.16;102276.59;109599;1253;67961;-73
2023/01/24 02:47:07;;;;;;;45.50;16.10;;;;;;;-0.93;74.08;102273.97;109456;1253;72789;-72
2023/01/24 02:49:55;;;;;;;36.50;13.00;;;;;;;-0.98;74.07;102273.07;109486;1254;57337;-73
2023/01/24 02:58:56;;;;;;;13.50;6.30;;;;;;;-1.03;74.00;102272.17;109493;1253;66856;-74
2023/01/24 03:01:43;;;;;;;10.00;3.70;;;;;;;-1.06;73.58;102266.39;108804;1253;1002871;-72
2023/01/24 03:04:33;;;;;;;7.90;3.50;;;;;;;-1.10;73.58;102265.67;109452;1253;57608;-72
2023/01/24 03:07:22;;;;;;;8.40;3.90;;;;;;;-1.08;73.75;102263.95;109609;1253;59083;-72
2023/01/24 03:10:17;;;;;;;8.80;3.60;;;;;;;-1.08;73.84;102261.69;109621;1253;71872;-72
2023/01/24 03:34:54;;;;;;;8.70;3.20;;;;;;;-1.39;73.53;102257.66;109191;1254;58699;-73
2023/01/24 03:40:53;;;;;;;8.80;3.10;;;;;;;-1.52;73.43;102254.08;109080;1257;74136;-73
2023/01/24 03:43:40;;;;;;;7.70;2.90;;;;;;;-1.52;73.66;102250.77;108322;1257;1002239;-71
2023/01/24 03:46:29;;;;;;;7.70;2.80;;;;;;;-1.49;74.19;102249.58;109140;1256;72531;-73
2023/01/24 03:49:17;;;;;;;8.40;2.60;;;;;;;-1.45;74.30;102247.86;108405;1256;1002094;-73
2023/01/24 03:55:12;;;;;;;10.20;3.20;;;;;;;-1.42;74.43;102248.58;109203;1256;73364;-73
2023/01/24 03:58:02;;;;;;;7.90;3.00;;;;;;;-1.44;74.31;102249.45;109208;1257;68186;-73
2023/01/24 04:00:53;;;;;;;9.90;3.70;;;;;;;-1.48;74.08;102249.76;109186;1257;73890;-73
2023/01/24 04:04:01;;;;;;;8.90;3.40;;;;;;;-1.51;74.07;102258.61;109170;1256;59006;-74
2023/01/24 04:06:50;;;;;;;9.60;3.60;;;;;;;-1.55;73.82;102254.23;108544;1256;1002402;-74
2023/01/24 04:09:39;;;;;;;9.20;4.10;;;;;;;-1.61;73.82;102263.23;109262;1256;74102;-74
2023/01/24 04:12:27;;;;;;;10.00;3.90;;;;;;;-1.64;74.06;102261.66;109280;1256;69315;-75
2023/01/24 04:15:20;;;;;;;8.70;4.10;;;;;;;-1.63;74.28;102266.54;108514;1256;1002226;-74
2023/01/24 04:18:13;;;;;;;11.30;4.10;;;;;;;-1.62;74.48;102273.52;109231;1253;58390;-74
2023/01/24 04:21:03;;;;;;;9.30;4.20;;;;;;;-1.63;74.37;102270.72;109479;1253;59518;-74
2023/01/24 04:23:51;;;;;;;10.10;3.80;;;;;;;-1.64;74.61;102268.62;109244;1253;73552;-74
2023/01/24 04:26:40;;;;;;;12.20;4.90;;;;;;;-1.66;74.82;102265.47;109525;1252;68938;-73
2023/01/24 04:29:32;;;;;;;12.00;5.70;;;;;;;-1.69;74.75;102265.09;108751;1253;1002310;-73
2023/01/24 04:32:21;;;;;;;11.40;6.10;;;;;;;-1.71;74.48;102262.64;109523;1252;57866;-72
2023/01/24 04:35:25;;;;;;;12.50;5.70;;;;;;;-1.72;74.64;102256.02;109491;1253;60246;-73
2023/01/24 04:38:15;;;;;;;13.80;6.20;;;;;;;-1.76;74.60;102247.64;108692;1254;1014737;-74
2023/01/24 04:41:22;;;;;;;12.80;5.50;;;;;;;-1.72;74.83;102257.59;109540;1252;66684;-73
2023/01/24 04:44:10;;;;;;;10.20;4.80;;;;;;;-1.72;74.82;102256.89;109517;1253;72737;-74
2023/01/24 04:46:59;;;;;;;10.80;5.00;;;;;;;-1.75;74.60;102258.27;109556;1253;57327;-73
2023/01/24 04:49:47;;;;;;;11.00;5.30;;;;;;;-1.84;74.63;102256.77;109484;1253;60825;-74
2023/01/24 04:52:38;;;;;;;12.10;5.10;;;;;;;-1.92;75.07;102258.11;108028;1252;1002859;-73
2023/01/24 04:55:28;;;;;;;11.10;5.10;;;;;;;-1.94;75.41;102257.39;109531;1253;67890;-73
2023/01/24 04:58:17;;;;;;;12.20;5.20;;;;;;;-1.91;75.70;102266.83;109579;1252;71520;-73
2023/01/24 05:01:05;;;;;;;14.80;6.50;;;;;;;-1.86;76.14;102271.90;108737;1252;1002320;-74
2023/01/24 05:04:01;;;;;;;13.30;6.00;;;;;;;-1.84;75.67;102281.15;109635;1253;60031;-74
2023/01/24 05:06:49;;;;;;;11.90;4.90;;;;;;;-1.84;75.85;102290.02;108713;1254;1002484;-74
2023/01/24 05:09:37;;;;;;;14.50;6.00;;;;;;;-1.94;75.13;102290.80;109614;1253;66163;-73
2023/01/24 05:12:28;;;;;;;11.60;5.90;;;;;;;-1.92;75.20;102302.65;108750;1252;1002218;-73
2023/01/24 05:15:21;;;;;;;11.80;5.70;;;;;;;-1.90;75.42;102301.98;108839;1253;1002491;-74
2023/01/24 05:18:10;;;;;;;11.90;5.30;;;;;;;-1.90;75.43;102299.54;108747;1253;1002224;-73
2023/01/24 05:21:17;;;;;;;10.30;4.60;;;;;;;-1.89;75.62;102298.52;109595;1252;71891;-73
2023/01/24 05:24:06;;;;;;;10.70;4.60;;;;;;;-1.86;75.72;102298.01;109472;1252;69027;-72
2023/01/24 05:26:56;;;;;;;15.20;5.60;;;;;;;-1.92;75.66;102294.82;109477;1252;73176;-74
2023/01/24 05:29:45;;;;;;;11.20;5.90;;;;;;;-1.94;75.57;102297.23;108765;1253;1002160;-74
2023/01/24 05:32:33;;;;;;;10.00;5.30;;;;;;;-1.95;75.68;102296.88;108867;1253;1014874;-73
2023/01/24 05:35:21;;;;;;;12.70;5.40;;;;;;;-1.96;75.89;102300.70;109556;1252;73144;-72
2023/01/24 05:38:10;;;;;;;12.10;5.90;;;;;;;-1.99;75.94;102295.11;108843;1253;1002241;-74
2023/01/24 05:41:08;;;;;;;14.10;6.90;;;;;;;-1.99;76.07;102287.80;109365;1253;72323;-77
2023/01/24 05:43:57;;;;;;;15.30;6.70;;;;;;;-2.00;75.50;102284.66;109468;1252;60083;-74
2023/01/24 05:46:47;;;;;;;14.40;7.00;;;;;;;-1.99;75.46;102275.62;108838;1252;1002275;-74
2023/01/24 05:49:39;;;;;;;13.40;6.10;;;;;;;-1.97;75.79;102275.29;109485;1252;73014;-75
2023/01/24 05:52:27;;;;;;;14.50;7.00;;;;;;;-1.94;75.61;102271.49;108824;1253;1002220;-74
2023/01/24 05:55:15;;;;;;;14.10;6.50;;;;;;;-1.89;75.88;102268.59;109570;1253;72849;-73
2023/01/24 05:58:08;;;;;;;11.60;5.40;;;;;;;-1.85;75.85;102263.22;108703;1253;1002232;-74
2023/01/24 06:01:10;;;;;;;12.80;6.10;;;;;;;-1.87;75.39;102268.07;109560;1253;61377;-75
2023/01/24 06:04:02;;;;;;;13.00;5.70;;;;;;;-1.89;75.70;102263.17;109466;1253;71690;-74
2023/01/24 06:06:52;;;;;;;12.60;6.20;;;;;;;-1.89;76.01;102255.88;109505;1251;67875;-72
2023/01/24 06:09:40;;;;;;;16.10;7.50;;;;;;;-1.91;75.76;102244.70;108834;1251;1002933;-73
2023/01/24 06:12:28;;;;;;;15.20;6.90;;;;;;;-1.93;75.70;102246.44;109572;1252;57283;-72
2023/01/24 06:15:16;;;;;;;16.60;7.60;;;;;;;-1.97;75.64;102249.02;109507;1252;61055;-74
2023/01/24 06:18:05;;;;;;;12.90;6.90;;;;;;;-1.99;75.79;102247.60;109565;1254;74271;-76
2023/01/24 06:20:55;;;;;;;17.40;7.20;;;;;;;-2.00;75.34;102258.20;109451;1251;68057;-76
2023/01/24 06:23:45;;;;;;;14.20;7.30;;;;;;;-2.01;75.39;102255.59;108778;1251;1002998;-72
2023/01/24 06:26:34;;;;;;;13.60;6.10;;;;;;;-2.01;75.34;102256.27;109562;1251;57400;-73
2023/01/24 06:29:23;;;;;;;14.00;6.80;;;;;;;-2.01;75.35;102257.14;109634;1251;60321;-73
2023/01/24 06:32:10;;;;;;;14.60;6.40;;;;;;;-2.02;75.52;102257.84;108865;1251;1002546;-75
2023/01/24 06:35:25;;;;;;;13.40;6.60;;;;;;;-2.03;75.24;102259.92;108894;1251;1002739;-74
2023/01/24 06:38:24;;;;;;;13.60;6.70;;;;;;;-2.06;75.46;102267.02;109564;1251;72418;-74
2023/01/24 06:41:17;;;;;;;15.40;7.40;;;;;;;-2.09;75.40;102278.13;109591;1251;57361;-75
2023/01/24 06:44:07;;;;;;;20.20;8.20;;;;;;;-2.11;75.48;102284.02;109518;1251;61497;-67
2023/01/24 06:46:54;;;;;;;19.70;9.10;;;;;;;-2.11;75.56;102287.85;108866;1251;1002943;-71
2023/01/24 06:49:43;;;;;;;14.30;6.10;;;;;;;-2.10;75.40;102293.77;109659;1251;68839;-69
2023/01/24 06:52:30;;;;;;;15.50;7.40;;;;;;;-2.12;75.11;102292.70;109504;1251;71072;-72
2023/01/24 06:55:18;;;;;;;15.50;7.70;;;;;;;-2.13;75.26;102298.95;109598;1251;57266;-72
2023/01/24 06:58:07;;;;;;;13.90;6.80;;;;;;;-2.13;75.32;102303.30;109518;1253;61551;-70
2023/01/24 07:00:55;;;;;;;14.70;7.90;;;;;;;-2.11;75.53;102314.30;109538;1251;72768;-71
2023/01/24 07:03:43;;;;;;;14.10;6.40;;;;;;;-2.08;75.64;102332.25;108853;1251;1002061;-71
2023/01/24 07:06:31;;;;;;;12.80;5.50;;;;;;;-2.05;75.75;102338.89;109569;1251;71578;-71
2023/01/24 07:09:21;;;;;;;12.20;6.00;;;;;;;-2.06;75.68;102338.70;109549;1252;58490;-70
2023/01/24 07:12:09;;;;;;;11.70;5.30;;;;;;;-2.10;75.07;102332.39;109528;1252;61297;-72
2023/01/24 07:14:57;;;;;;;13.10;6.20;;;;;;;-2.12;75.22;102329.59;109573;1253;73740;-71
2023/01/24 07:17:45;;;;;;;14.10;6.40;;;;;;;-2.10;75.29;102326.12;109554;1252;68086;-71
2023/01/24 07:20:34;;;;;;;12.00;5.40;;;;;;;-2.07;75.55;102326.51;109480;1254;71797;-73
2023/01/24 07:23:27;;;;;;;13.20;6.20;;;;;;;-2.01;75.54;102324.83;109550;1253;58274;-70
2023/01/24 07:26:16;;;;;;;11.90;5.40;;;;;;;-1.98;75.43;102323.47;109582;1251;57903;-70
2023/01/24 07:29:04;;;;;;;13.90;6.30;;;;;;;-1.99;75.20;102326.08;109624;1251;73141;-71
2023/01/24 07:31:52;;;;;;;13.10;6.00;;;;;;;-2.05;75.18;102313.83;109574;1251;68160;-71
2023/01/24 07:34:40;;;;;;;11.30;5.30;;;;;;;-2.03;75.34;102310.02;108782;1251;1002125;-71
2023/01/24 07:37:29;;;;;;;11.60;5.70;;;;;;;-2.04;75.23;102326.71;108805;1251;1002448;-74
2023/01/24 07:40:17;;;;;;;12.90;6.00;;;;;;;-2.03;75.48;102349.19;109562;1251;60535;-70
2023/01/24 07:43:06;;;;;;;12.90;5.90;;;;;;;-2.02;75.59;102346.39;109595;1251;73302;-72
2023/01/24 07:45:54;;;;;;;13.00;6.40;;;;;;;-1.97;75.46;102338.78;108835;1251;1002390;-71
2023/01/24 07:48:42;;;;;;;13.90;7.20;;;;;;;-1.91;75.47;102338.52;109587;1251;72521;-73
2023/01/24 07:51:30;;;;;;;14.40;6.70;;;;;;;-1.83;75.48;102366.95;109574;1253;58341;-73
2023/01/24 07:54:19;;;;;;;15.90;6.50;;;;;;;-1.79;75.15;102372.39;109559;1252;60289;-73
2023/01/24 07:57:08;;;;;;;12.00;5.20;;;;;;;-1.73;75.25;102378.90;109550;1252;73012;-73
2023/01/24 07:59:55;;;;;;;11.60;5.40;;;;;;;-1.71;75.07;102383.79;109602;1251;65850;-69
2023/01/24 08:02:44;;;;;;;14.00;6.00;;;;;;;-1.64;74.87;102381.25;109546;1252;72852;-70
2023/01/24 08:05:32;;;;;;;11.20;5.40;;;;;;;-1.63;74.60;102389.10;109560;1252;57297;-70
2023/01/24 08:08:21;;;;;;;8.80;4.20;;;;;;;-1.63;74.67;102398.67;109554;1253;61237;-72
2023/01/24 08:11:11;;;;;;;11.80;5.20;;;;;;;-1.64;74.76;102406.66;108803;1252;1002191;-72
2023/01/24 08:13:59;;;;;;;13.50;5.50;;;;;;;-1.61;74.68;102413.85;109476;1252;68766;-72
2023/01/24 08:16:48;;;;;;;11.80;5.20;;;;;;;-1.59;74.88;102407.77;109599;1252;73391;-74
2023/01/24 08:19:37;;;;;;;11.30;5.80;;;;;;;-1.58;74.95;102404.13;109525;1251;57757;-69
2023/01/24 08:22:43;;;;;;;13.80;6.20;;;;;;;-1.57;74.91;102404.48;109562;1252;60269;-74
2023/01/24 08:25:43;;;;;;;13.30;6.00;;;;;;;-1.53;74.89;102401.56;108789;1252;1002181;-72
2023/01/24 08:28:32;;;;;;;11.10;5.00;;;;;;;-1.47;74.75;102397.61;109547;1252;67632;-70
2023/01/24 08:31:20;;;;;;;10.20;4.10;;;;;;;-1.45;74.43;102401.63;108796;1252;1002262;-71
2023/01/24 08:34:10;;;;;;;10.10;4.20;;;;;;;-1.43;74.41;102402.34;109525;1252;57337;-74
2023/01/24 08:36:58;;;;;;;12.00;5.20;;;;;;;-1.40;74.56;102394.89;109532;1252;59351;-70
2023/01/24 08:39:46;;;;;;;11.00;4.80;;;;;;;-1.38;74.32;102386.90;109563;1252;72831;-71
2023/01/24 08:42:35;;;;;;;11.50;4.70;;;;;;;-1.35;74.25;102387.44;108802;1252;1002162;-74
2023/01/24 08:45:24;;;;;;;10.90;4.80;;;;;;;-1.32;74.16;102382.25;109498;1252;71384;-71
2023/01/24 08:48:12;;;;;;;10.60;4.70;;;;;;;-1.30;73.87;102375.47;109525;1253;58929;-71
2023/01/24 08:51:03;;;;;;;13.60;4.90;;;;;;;-1.27;73.86;102365.73;109494;1252;59186;-72
2023/01/24 08:53:51;;;;;;;10.50;4.40;;;;;;;-1.21;73.89;102365.96;109579;1252;73137;-71
2023/01/24 08:56:40;;;;;;;11.10;4.70;;;;;;;-1.14;73.87;102367.59;109575;1252;66396;-70
2023/01/24 08:59:28;;;;;;;10.90;4.60;;;;;;;-1.06;73.90;102359.28;109524;1251;73438;-70
2023/01/24 09:02:16;;;;;;;13.30;5.00;;;;;;;-1.00;73.34;102355.13;109542;1252;57392;-73
2023/01/24 09:05:06;;;;;;;12.80;5.60;;;;;;;-1.00;73.01;102350.08;109576;1252;59944;-70
2023/01/24 09:07:55;;;;;;;10.90;4.20;;;;;;;-0.97;73.23;102353.41;109585;1251;71855;-71
2023/01/24 09:10:43;;;;;;;13.40;5.00;;;;;;;-0.94;73.03;102347.86;109569;1251;69049;-72
2023/01/24 09:13:31;;;;;;;10.80;4.50;;;;;;;-0.94;72.46;102335.13;108732;1252;1002949;-69
2023/01/24 09:16:19;;;;;;;12.20;5.00;;;;;;;-1.01;72.20;102334.73;108736;1252;1002460;-75
2023/01/24 09:19:07;;;;;;;13.80;5.30;;;;;;;-1.08;72.63;102336.79;109563;1252;59733;-71
2023/01/24 09:21:56;;;;;;;11.00;5.10;;;;;;;-0.98;72.80;102350.09;108737;1252;1002454;-72
2023/01/24 09:24:44;;;;;;;13.10;5.40;;;;;;;-0.90;72.89;102361.83;109578;1252;66205;-72
2023/01/24 09:27:32;;;;;;;10.30;4.20;;;;;;;-0.80;72.86;102365.90;109444;1251;73750;-71
2023/01/24 09:30:22;;;;;;;8.60;3.90;;;;;;;-0.74;72.34;102365.06;109525;1252;58491;-70
2023/01/24 09:33:11;;;;;;;9.20;4.30;;;;;;;-0.74;71.60;102358.79;109479;1251;59030;-70
2023/01/24 09:36:02;;;;;;;10.30;4.90;;;;;;;-0.74;71.77;102356.70;108795;1252;1002139;-70
2023/01/24 09:38:50;;;;;;;10.40;4.70;;;;;;;-0.71;71.97;102355.50;109368;1252;69069;-68
2023/01/24 09:42:36;;;;;;;11.20;4.80;;;;;;;-0.69;71.37;102346.77;109526;1253;72421;-71
2023/01/24 09:45:58;;;;;;;10.20;4.60;;;;;;;-0.71;71.10;102330.74;108713;1252;1002790;-74
2023/01/24 09:48:52;;;;;;;13.10;5.00;;;;;;;-0.66;71.52;102327.96;109563;1252;58939;-72
2023/01/24 09:51:53;;;;;;;12.90;5.80;;;;;;;-0.66;71.17;102332.69;109591;1252;73280;-72
2023/01/24 09:55:02;;;;;;;11.70;5.40;;;;;;;-0.70;71.33;102332.31;108680;1251;1014429;-70
2023/01/24 09:58:03;;;;;;;15.60;6.90;;;;;;;-0.70;70.77;102335.81;109556;1251;71219;-74
2023/01/24 10:00:51;;;;;;;13.90;6.20;;;;;;;-0.70;71.24;102327.95;109493;1251;57701;-70
2023/01/24 10:03:42;;;;;;;14.70;6.80;;;;;;;-0.70;71.19;102317.32;109618;1252;58758;-72
2023/01/24 10:06:31;;;;;;;13.90;5.20;;;;;;;-0.67;71.56;102312.80;109505;1252;74077;-68
2023/01/24 10:09:33;;;;;;;13.00;5.80;;;;;;;-0.67;70.98;102308.44;109550;1252;66429;-70
2023/01/24 10:12:43;;;;;;;14.70;6.70;;;;;;;-0.65;71.39;102308.62;109513;1253;73539;-72
2023/01/24 10:16:18;;;;;;;12.80;6.30;;;;;;;-0.65;71.09;102303.39;109555;1251;58561;-72
2023/01/24 10:19:42;;;;;;;11.30;4.90;;;;;;;-0.72;70.50;102309.80;109524;1251;60147;-71
2023/01/24 10:23:16;;;;;;;11.50;5.30;;;;;;;-0.77;70.66;102310.32;109561;1251;72747;-70
2023/01/24 10:26:21;;;;;;;11.60;5.40;;;;;;;-0.75;70.66;102324.45;109017;1257;68886;-70
2023/01/24 10:29:17;;;;;;;11.70;5.10;;;;;;;-0.71;71.01;102332.31;109104;1257;73694;-71
2023/01/24 10:32:16;;;;;;;14.60;6.00;;;;;;;-0.70;70.59;102331.98;109081;1257;57388;-70
2023/01/24 10:35:22;;;;;;;12.80;5.60;;;;;;;-0.70;70.65;102335.27;108154;1257;1002314;-72
2023/01/24 10:38:17;;;;;;;11.70;5.20;;;;;;;-0.72;70.52;102335.61;109096;1257;71480;-69
2023/01/24 10:41:20;;;;;;;12.40;5.60;;;;;;;-0.74;70.31;102341.70;109037;1257;68994;-70
2023/01/24 10:44:17;;;;;;;12.20;5.60;;;;;;;-0.73;70.53;102349.55;109047;1257;71532;-69
2023/01/24 10:47:26;;;;;;;11.90;5.40;;;;;;;-0.74;70.39;102343.10;109044;1257;57825;-70
2023/01/24 10:50:17;;;;;;;10.50;4.90;;;;;;;-0.78;70.69;102337.84;109051;1257;59193;-69
2023/01/24 10:53:18;;;;;;;9.60;4.30;;;;;;;-0.75;70.61;102349.55;108251;1257;1002293;-70
2023/01/24 10:56:20;;;;;;;10.30;4.30;;;;;;;-0.77;70.55;102340.81;109079;1257;67998;-71
2023/01/24 10:59:14;;;;;;;11.10;4.80;;;;;;;-0.80;70.66;102338.19;108957;1257;72526;-71
2023/01/24 11:02:02;;;;;;;12.50;5.50;;;;;;;-0.84;70.97;102331.52;109062;1258;57688;-69
2023/01/24 11:05:03;;;;;;;10.20;4.50;;;;;;;-0.87;71.81;102320.71;109607;1251;60042;-67
2023/01/24 11:07:59;;;;;;;14.70;6.10;;;;;;;-0.89;71.76;102306.05;109605;1251;72991;-69
2023/01/24 11:10:56;;;;;;;12.30;6.00;;;;;;;-0.78;71.42;102312.22;109462;1251;66831;-69
2023/01/24 11:13:44;;;;;;;14.10;6.00;;;;;;;-0.72;71.24;102309.46;108856;1251;1002553;-69
2023/01/24 11:16:49;;;;;;;14.20;5.50;;;;;;;-0.68;70.89;102306.52;109564;1251;57658;-70
2023/01/24 11:19:39;;;;;;;12.20;6.10;;;;;;;-0.72;70.52;102298.31;109501;1251;60917;-71
2023/01/24 11:22:35;;;;;;;11.50;5.30;;;;;;;-0.79;70.45;102289.90;109505;1251;73705;-69
2023/01/24 11:25:24;;;;;;;12.20;5.60;;;;;;;-0.82;70.69;102284.83;109591;1251;69045;-69
2023/01/24 11:28:30;;;;;;;13.60;6.40;;;;;;;-0.89;70.41;102283.75;109443;1251;73883;-70
2023/01/24 11:31:30;;;;;;;12.20;6.00;;;;;;;-0.96;71.35;102279.19;108848;1251;1002871;-69
2023/01/24 11:35:16;;;;;;;12.50;6.40;;;;;;;-0.97;71.47;102270.11;109673;1251;60517;-69
2023/01/24 11:38:25;;;;;;;15.40;7.40;;;;;;;-1.00;71.32;102264.70;108199;1259;1003023;-74
2023/01/24 11:41:30;;;;;;;14.30;7.00;;;;;;;-1.04;71.16;102257.19;108975;1259;68715;-70
2023/01/24 11:44:21;;;;;;;14.40;7.70;;;;;;;-1.20;71.55;102266.67;108924;1259;71114;-69
2023/01/24 11:47:20;;;;;;;14.70;7.10;;;;;;;-1.26;72.08;102273.59;108233;1259;1002199;-72
2023/01/24 11:50:34;;;;;;;14.80;7.70;;;;;;;-1.27;72.37;102278.48;108971;1259;59199;-71
2023/01/24 11:53:37;;;;;;;13.70;6.60;;;;;;;-1.22;72.95;102271.71;108915;1259;73190;-70
2023/01/24 11:57:02;;;;;;;14.80;7.20;;;;;;;-1.14;72.75;102261.13;108958;1259;68995;-71
2023/01/24 12:00:02;;;;;;;14.80;7.40;;;;;;;-1.07;72.48;102254.72;108886;1259;72635;-70
2023/01/24 12:03:30;;;;;;;14.90;8.00;;;;;;;-1.05;72.49;102250.73;108968;1259;59493;-72
2023/01/24 12:06:23;;;;;;;14.80;7.20;;;;;;;-1.11;72.20;102239.89;108900;1259;57934;-70
2023/01/24 12:09:26;;;;;;;13.00;7.20;;;;;;;-1.17;72.40;102228.70;109393;1251;73203;-70
2023/01/24 12:12:29;;;;;;;15.20;8.00;;;;;;;-1.11;72.74;102230.65;109573;1251;67011;-69
2023/01/24 12:15:48;;;;;;;13.40;6.60;;;;;;;-1.05;72.57;102226.16;109626;1251;71494;-71
2023/01/24 12:19:05;;;;;;;15.90;7.10;;;;;;;-0.99;72.74;102223.40;108812;1251;1002774;-70
2023/01/24 12:21:56;;;;;;;17.40;8.60;;;;;;;-0.99;72.44;102215.73;109542;1251;60402;-72
2023/01/24 12:24:52;;;;;;;18.60;8.70;;;;;;;-1.09;72.24;102216.21;109548;1251;71506;-72
2023/01/24 12:27:42;;;;;;;18.60;9.10;;;;;;;-1.14;72.63;102221.23;109549;1251;68134;-68
2023/01/24 12:30:41;;;;;;;18.60;9.70;;;;;;;-1.09;72.90;102227.02;109526;1251;71200;-69
2023/01/24 12:33:42;;;;;;;17.90;8.20;;;;;;;-1.01;72.88;102220.08;108748;1251;1002917;-71
2023/01/24 12:36:46;;;;;;;16.90;8.10;;;;;;;-0.94;72.75;102214.52;109536;1251;59570;-68
2023/01/24 12:39:46;;;;;;;17.90;9.00;;;;;;;-0.92;72.64;102212.11;109511;1251;73074;-71
2023/01/24 12:42:58;;;;;;;17.60;9.40;;;;;;;-0.90;72.61;102212.63;109594;1251;67862;-71
2023/01/24 12:45:53;;;;;;;17.40;8.40;;;;;;;-0.83;73.01;102211.42;109556;1251;72327;-71
2023/01/24 12:49:12;;;;;;;17.30;8.30;;;;;;;-0.78;72.91;102210.07;109518;1251;57261;-73
2023/01/24 12:52:42;;;;;;;19.00;9.80;;;;;;;-0.76;72.97;102210.24;109607;1253;59170;-70
2023/01/24 12:55:33;;;;;;;20.50;9.60;;;;;;;-0.74;72.82;102202.59;108759;1254;1002338;-70
2023/01/24 12:58:39;;;;;;;23.70;12.30;;;;;;;-0.79;72.80;102202.21;108835;1251;1002430;-71
2023/01/24 13:02:04;;;;;;;21.50;10.60;;;;;;;-0.81;73.22;102208.30;109423;1252;72559;-71
2023/01/24 13:05:41;;;;;;;21.30;11.30;;;;;;;-0.78;73.53;102215.11;109458;1251;57325;-71
2023/01/24 13:09:06;;;;;;;19.00;9.40;;;;;;;-0.74;73.50;102222.63;109557;1252;59532;-73
2023/01/24 13:11:58;;;;;;;22.90;11.10;;;;;;;-0.70;73.58;102217.41;108762;1252;1002599;-69
2023/01/24 13:14:55;;;;;;;21.20;10.30;;;;;;;-0.70;73.40;102219.33;109489;1251;66657;-69
2023/01/24 13:18:16;;;;;;;22.60;11.60;;;;;;;-0.72;73.70;102207.47;109475;1251;72684;-70
2023/01/24 13:21:26;;;;;;;26.80;13.60;;;;;;;-0.74;73.93;102205.54;109538;1252;58536;-70
2023/01/24 13:24:48;;;;;;;29.00;13.20;;;;;;;-0.76;74.15;102214.61;109628;1252;58945;-70
2023/01/24 13:27:59;;;;;;;23.70;10.20;;;;;;;-0.78;74.50;102204.83;109557;1252;71518;-73
2023/01/24 13:30:49;;;;;;;24.50;11.80;;;;;;;-0.82;74.69;102198.55;109604;1252;67614;-70
2023/01/24 13:33:59;;;;;;;29.80;13.70;;;;;;;-0.85;75.19;102199.23;109550;1251;71050;-72
2023/01/24 13:36:50;;;;;;;28.10;12.90;;;;;;;-0.90;75.38;102191.89;109476;1253;57305;-71
2023/01/24 13:39:39;;;;;;;29.10;15.30;;;;;;;-0.89;75.67;102192.42;109534;1253;61474;-72
2023/01/24 13:42:38;;;;;;;27.40;12.90;;;;;;;-0.87;75.70;102192.42;109557;1252;71672;-70
2023/01/24 13:45:29;;;;;;;26.60;12.40;;;;;;;-0.83;75.91;102191.56;109385;1252;67758;-71
2023/01/24 13:48:39;;;;;;;24.10;12.00;;;;;;;-0.80;75.94;102191.23;109584;1252;72409;-70
2023/01/24 13:51:43;;;;;;;24.00;10.90;;;;;;;-0.71;76.14;102193.88;109568;1252;58058;-70
2023/01/24 13:54:43;;;;;;;18.10;8.80;;;;;;;-0.62;76.22;102191.11;109475;1251;61048;-69